Nippon Maru — 3FDA7 — position and weather

sailwx.info

Track history (hours):
 
Tides and Currents Weather Stations Pressure Air Temp Water Temp Dewpoint Dewpoint Depression Visibility Wind Speed Wind Dir Waves Ship Positions

Nippon Maru

Last reported at 2015-Mar-17 17:33 UTC. Time now 2015-Apr-02 03:06 UTC.
Position N 01°56' E 102°18'.
Warning: this ship's position is 15 days out of date.

Length 190 m; draft 12.9 m.

Type: Cargo ship. MMSI: 353814000.

Date/timePositionNaut miles runAvg speedWind from/ knotsBaromVisibWave heightAir tempDewpointWater temp
2015-Mar-17 17:33N 01°56' E 102°18'1212.5
2015-Mar-17 16:34N 01°50' E 102°29'1312.4
2015-Mar-17 15:31N 01°45' E 102°41'1211.8
2015-Mar-17 14:29N 01°39' E 102°51'5610.8
2015-Mar-17 09:17N 01°11' E 103°40'7 9.2
2015-Mar-17 08:33N 01°10' E 103°46'9 8.9
2015-Mar-17 07:33N 01°13' E 103°55'6 6.0
2015-Mar-17 06:33N 01°17' E 103°59'0 0.1
2015-Mar-17 05:26N 01°17' E 103°59'0 0.0
2015-Mar-17 04:20N 01°17' E 103°59'0 0.0
2015-Mar-17 03:32N 01°17' E 103°59'0 0.0
2015-Mar-17 02:32N 01°17' E 103°59'0 0.1
2015-Mar-17 01:14N 01°17' E 103°59'0 0.2
2015-Mar-17 00:32N 01°17' E 103°59'0 0.0
2015-Mar-16 23:20N 01°17' E 103°59'0 0.0
2015-Mar-16 22:32N 01°17' E 103°59'0 0.0
2015-Mar-16 21:14N 01°17' E 103°59'0 0.0
2015-Mar-16 20:26N 01°17' E 103°59'0 0.0
2015-Mar-16 19:32N 01°17' E 103°59'0 0.0
2015-Mar-16 18:20N 01°17' E 103°59'0 0.1
2015-Mar-16 17:32N 01°17' E 103°59'1 1.3
2015-Mar-16 16:33N 01°16' E 103°59'9 9.0
2015-Mar-16 15:33N 01°17' E 104°08'10 8.8
2015-Mar-16 14:25N 01°19' E 104°18'  
2015-Mar-13 20:21S 04°23' E 113°42'1010.9
2015-Mar-13 19:25S 04°23' E 113°52'910.8
2015-Mar-13 18:32S 04°23' E 114°01'1010.5
2015-Mar-13 17:33S 04°19' E 114°11'1211.5
2015-Mar-13 16:33S 04°10' E 114°18'1111.4
2015-Mar-13 15:33S 04°00' E 114°24'1110.7
2015-Mar-13 14:33S 03°50' E 114°28'8 7.7
2015-Mar-13 13:33S 03°43' E 114°29'0 0.2
2015-Mar-13 12:29S 03°43' E 114°29'0 0.1
2015-Mar-13 11:32S 03°43' E 114°29'0 0.1
2015-Mar-13 10:32S 03°43' E 114°29'0 0.1
2015-Mar-13 09:32S 03°43' E 114°29'0 0.0
2015-Mar-13 08:32S 03°43' E 114°29'0 0.0
2015-Mar-13 07:32S 03°43' E 114°29'0 0.1
2015-Mar-13 06:32S 03°43' E 114°29'0 0.1
2015-Mar-13 05:32S 03°43' E 114°29'0 0.1
2015-Mar-13 04:32S 03°43' E 114°29'0 0.0
2015-Mar-13 03:32S 03°43' E 114°29'0 0.0
2015-Mar-13 02:32S 03°43' E 114°29'0 0.0
2015-Mar-13 01:32S 03°43' E 114°29'0 0.0
2015-Mar-13 00:32S 03°43' E 114°29'0 0.0
2015-Mar-12 23:32S 03°43' E 114°29'0 0.0
2015-Mar-12 22:32S 03°43' E 114°29'0 0.1
2015-Mar-12 21:32S 03°43' E 114°29'0 0.1
2015-Mar-12 20:32S 03°43' E 114°29'0 0.1
2015-Mar-12 19:32S 03°43' E 114°29'0 0.1
2015-Mar-12 18:32S 03°43' E 114°29'0 0.0
2015-Mar-12 17:32S 03°43' E 114°29'0 0.1
2015-Mar-12 16:29S 03°43' E 114°29'0 0.0
2015-Mar-12 15:29S 03°43' E 114°29'0 0.0
2015-Mar-12 14:32S 03°43' E 114°29'0 0.1
2015-Mar-12 13:32S 03°43' E 114°29'0 0.0
2015-Mar-12 12:32S 03°43' E 114°29'0 0.0
2015-Mar-12 11:32S 03°43' E 114°29'0 0.0
2015-Mar-12 10:32S 03°43' E 114°29'0 0.0
2015-Mar-12 09:29S 03°43' E 114°29'0 0.1
2015-Mar-12 08:32S 03°43' E 114°29'0 0.0
2015-Mar-12 07:32S 03°43' E 114°29'0 0.1
2015-Mar-12 06:32S 03°43' E 114°29'0 0.0
2015-Mar-12 05:32S 03°43' E 114°29'0 0.0
2015-Mar-12 04:32S 03°43' E 114°29'0 0.0
2015-Mar-12 03:32S 03°43' E 114°29'0 0.0
2015-Mar-12 02:32S 03°43' E 114°29'0 0.0
2015-Mar-12 00:32S 03°43' E 114°29'0 0.0
2015-Mar-11 23:32S 03°43' E 114°29'0 0.1
2015-Mar-11 22:26S 03°43' E 114°29'0 0.1
2015-Mar-11 21:32S 03°43' E 114°29'0 0.1
2015-Mar-11 20:32S 03°43' E 114°29'0 0.1
2015-Mar-11 19:32S 03°43' E 114°29'0 0.0
2015-Mar-11 18:29S 03°43' E 114°29'0 0.1
2015-Mar-11 17:32S 03°43' E 114°29'0 0.0
2015-Mar-11 16:29S 03°43' E 114°29'0 0.0
2015-Mar-11 15:32S 03°43' E 114°29'0 0.0
2015-Mar-11 14:32S 03°43' E 114°29'0 0.1
2015-Mar-11 13:32S 03°43' E 114°29'0 0.1
2015-Mar-11 12:32S 03°43' E 114°29'0 0.1
2015-Mar-11 11:32S 03°43' E 114°29'0 0.0
2015-Mar-11 10:32S 03°43' E 114°29'0 0.1
2015-Mar-11 09:32S 03°43' E 114°29'0 0.1
2015-Mar-11 08:32S 03°43' E 114°29'0 0.0
2015-Mar-11 07:32S 03°43' E 114°29'0 0.0
2015-Mar-11 06:32S 03°43' E 114°29'0 0.0
2015-Mar-11 05:32S 03°43' E 114°29'0 0.0
2015-Mar-11 04:32S 03°43' E 114°29'0 0.0
2015-Mar-11 03:32S 03°43' E 114°29'0 0.1
2015-Mar-11 02:32S 03°43' E 114°29'0 0.0
2015-Mar-11 01:32S 03°43' E 114°29'0 0.1
2015-Mar-11 00:32S 03°43' E 114°29'0 0.0
2015-Mar-10 23:32S 03°43' E 114°29'0 0.1
2015-Mar-10 22:32S 03°43' E 114°29'0 0.1
2015-Mar-10 21:32S 03°43' E 114°29'0 0.1
2015-Mar-10 20:32S 03°43' E 114°29'0 0.0
2015-Mar-10 19:32S 03°43' E 114°29'0 0.0
2015-Mar-10 18:32S 03°43' E 114°29'0 0.1
2015-Mar-10 17:32S 03°43' E 114°29'0 0.1
2015-Mar-10 16:32S 03°43' E 114°29'0 0.1
2015-Mar-10 15:32S 03°43' E 114°29'0 0.1
2015-Mar-10 14:32S 03°43' E 114°29'0 0.1
2015-Mar-10 13:32S 03°43' E 114°29'0 0.1
2015-Mar-10 12:32S 03°43' E 114°29'0 0.0
2015-Mar-10 11:32S 03°43' E 114°29'0 0.0
2015-Mar-10 10:32S 03°43' E 114°29'0 0.0
2015-Mar-10 09:32S 03°43' E 114°29'0 0.0
2015-Mar-10 08:32S 03°43' E 114°29'0 0.0
2015-Mar-10 07:32S 03°43' E 114°29'0 0.1
2015-Mar-10 06:32S 03°43' E 114°29'0 0.0
2015-Mar-10 05:32S 03°43' E 114°29'0 0.1
2015-Mar-10 04:26S 03°43' E 114°29'0 0.1
2015-Mar-10 03:26S 03°43' E 114°29'0 0.1
2015-Mar-10 02:20S 03°43' E 114°29'0 0.0
2015-Mar-10 01:32S 03°43' E 114°29'0 0.1
2015-Mar-10 00:29S 03°43' E 114°29'0 0.1
2015-Mar-09 23:32S 03°43' E 114°29'0 0.0
2015-Mar-09 22:32S 03°43' E 114°29'0 0.0
2015-Mar-09 21:32S 03°43' E 114°29'0 0.0
2015-Mar-09 20:32S 03°43' E 114°29'0 0.1
2015-Mar-09 19:32S 03°43' E 114°29'0 0.1
2015-Mar-09 18:32S 03°43' E 114°29'0 0.0
2015-Mar-09 17:32S 03°43' E 114°29'0 0.0
2015-Mar-09 16:32S 03°43' E 114°29'0 0.0
2015-Mar-09 15:32S 03°43' E 114°29'0 0.0
2015-Mar-09 14:32S 03°43' E 114°29'0 0.0
2015-Mar-09 13:32S 03°43' E 114°29'0 0.1
2015-Mar-09 12:32S 03°43' E 114°29'0 0.2
2015-Mar-09 11:32S 03°43' E 114°29'0 0.1
2015-Mar-09 10:32S 03°43' E 114°29'0 0.0
2015-Mar-09 09:32S 03°43' E 114°29'0 0.0
2015-Mar-09 08:32S 03°43' E 114°29'0 0.1
2015-Mar-09 07:32S 03°43' E 114°29'0 0.1
2015-Mar-09 06:32S 03°43' E 114°29'0 0.0
2015-Mar-09 05:32S 03°43' E 114°29'0 0.0
2015-Mar-09 04:32S 03°43' E 114°29'0 0.1
2015-Mar-09 03:32S 03°43' E 114°29'0 0.0
2015-Mar-09 02:32S 03°43' E 114°29'0 0.0
2015-Mar-09 01:29S 03°43' E 114°29'0 0.1
2015-Mar-09 00:32S 03°43' E 114°29'0 0.1
2015-Mar-08 23:32S 03°43' E 114°29'0 0.1
2015-Mar-08 22:32S 03°43' E 114°29'0 0.0
2015-Mar-08 21:32S 03°43' E 114°29'0 0.0
2015-Mar-08 20:32S 03°43' E 114°29'0 0.0
2015-Mar-08 19:32S 03°43' E 114°29'0 0.1
2015-Mar-08 18:32S 03°43' E 114°29'0 0.1
2015-Mar-08 17:32S 03°43' E 114°29'0 0.0
2015-Mar-08 16:32S 03°43' E 114°29'0 0.0
2015-Mar-08 15:32S 03°43' E 114°29'0 0.1
2015-Mar-08 14:32S 03°43' E 114°29'0 0.1
2015-Mar-08 13:32S 03°43' E 114°29'0 0.1
2015-Mar-08 12:32S 03°43' E 114°29'0 0.1
2015-Mar-08 11:32S 03°43' E 114°29'0 0.1
2015-Mar-08 10:32S 03°43' E 114°29'0 0.1
2015-Mar-08 09:32S 03°43' E 114°29'0 0.0
2015-Mar-08 08:32S 03°43' E 114°29'0 0.1
2015-Mar-08 07:32S 03°43' E 114°29'0 0.1
2015-Mar-08 06:32S 03°43' E 114°29'0 0.0
2015-Mar-08 05:30S 03°43' E 114°29'0 0.1
2015-Mar-08 04:29S 03°43' E 114°29'0 0.0
2015-Mar-08 03:32S 03°43' E 114°29'0 0.0
2015-Mar-07 23:14S 03°43' E 114°29'0 0.1
2015-Mar-07 22:32S 03°43' E 114°29'0 0.1
2015-Mar-07 21:32S 03°43' E 114°29'0 0.2
2015-Mar-07 20:32S 03°43' E 114°29'0 0.1
2015-Mar-07 19:32S 03°43' E 114°29'0 0.0
2015-Mar-07 18:32S 03°43' E 114°29'  
Track history (hours):
 
Tides and Currents Weather Stations Pressure Air Temp Water Temp Dewpoint Dewpoint Depression Visibility Wind Speed Wind Dir Waves Ship Positions

Nippon Maru

Last reported at 2015-Mar-17 17:33 UTC. Time now 2015-Apr-02 03:06 UTC.
Position N 01°56' E 102°18'.
Warning: this ship's position is 15 days out of date.

Length 190 m; draft 12.9 m.

Type: Cargo ship. MMSI: 353814000.

Date/timePositionNaut miles runAvg speedWind from/ knotsBaromVisibWave heightAir tempDewpointWater temp
2015-Mar-17 17:33N 01°56' E 102°18'1212.5
2015-Mar-17 16:34N 01°50' E 102°29'1312.4
2015-Mar-17 15:31N 01°45' E 102°41'1211.8
2015-Mar-17 14:29N 01°39' E 102°51'5610.8
2015-Mar-17 09:17N 01°11' E 103°40'7 9.2
2015-Mar-17 08:33N 01°10' E 103°46'9 8.9
2015-Mar-17 07:33N 01°13' E 103°55'6 6.0
2015-Mar-17 06:33N 01°17' E 103°59'0 0.1
2015-Mar-17 05:26N 01°17' E 103°59'0 0.0
2015-Mar-17 04:20N 01°17' E 103°59'0 0.0
2015-Mar-17 03:32N 01°17' E 103°59'0 0.0
2015-Mar-17 02:32N 01°17' E 103°59'0 0.1
2015-Mar-17 01:14N 01°17' E 103°59'0 0.2
2015-Mar-17 00:32N 01°17' E 103°59'0 0.0
2015-Mar-16 23:20N 01°17' E 103°59'0 0.0
2015-Mar-16 22:32N 01°17' E 103°59'0 0.0
2015-Mar-16 21:14N 01°17' E 103°59'0 0.0
2015-Mar-16 20:26N 01°17' E 103°59'0 0.0
2015-Mar-16 19:32N 01°17' E 103°59'0 0.0
2015-Mar-16 18:20N 01°17' E 103°59'0 0.1
2015-Mar-16 17:32N 01°17' E 103°59'1 1.3
2015-Mar-16 16:33N 01°16' E 103°59'9 9.0
2015-Mar-16 15:33N 01°17' E 104°08'10 8.8
2015-Mar-16 14:25N 01°19' E 104°18'  
2015-Mar-13 20:21S 04°23' E 113°42'1010.9
2015-Mar-13 19:25S 04°23' E 113°52'910.8
2015-Mar-13 18:32S 04°23' E 114°01'1010.5
2015-Mar-13 17:33S 04°19' E 114°11'1211.5
2015-Mar-13 16:33S 04°10' E 114°18'1111.4
2015-Mar-13 15:33S 04°00' E 114°24'1110.7
2015-Mar-13 14:33S 03°50' E 114°28'8 7.7
2015-Mar-13 13:33S 03°43' E 114°29'0 0.2
2015-Mar-13 12:29S 03°43' E 114°29'0 0.1
2015-Mar-13 11:32S 03°43' E 114°29'0 0.1
2015-Mar-13 10:32S 03°43' E 114°29'0 0.1
2015-Mar-13 09:32S 03°43' E 114°29'0 0.0
2015-Mar-13 08:32S 03°43' E 114°29'0 0.0
2015-Mar-13 07:32S 03°43' E 114°29'0 0.1
2015-Mar-13 06:32S 03°43' E 114°29'0 0.1
2015-Mar-13 05:32S 03°43' E 114°29'0 0.1
2015-Mar-13 04:32S 03°43' E 114°29'0 0.0
2015-Mar-13 03:32S 03°43' E 114°29'0 0.0
2015-Mar-13 02:32S 03°43' E 114°29'0 0.0
2015-Mar-13 01:32S 03°43' E 114°29'0 0.0
2015-Mar-13 00:32S 03°43' E 114°29'0 0.0
2015-Mar-12 23:32S 03°43' E 114°29'0 0.0
2015-Mar-12 22:32S 03°43' E 114°29'0 0.1
2015-Mar-12 21:32S 03°43' E 114°29'0 0.1
2015-Mar-12 20:32S 03°43' E 114°29'0 0.1
2015-Mar-12 19:32S 03°43' E 114°29'0 0.1
2015-Mar-12 18:32S 03°43' E 114°29'0 0.0
2015-Mar-12 17:32S 03°43' E 114°29'0 0.1
2015-Mar-12 16:29S 03°43' E 114°29'0 0.0
2015-Mar-12 15:29S 03°43' E 114°29'0 0.0
2015-Mar-12 14:32S 03°43' E 114°29'0 0.1
2015-Mar-12 13:32S 03°43' E 114°29'0 0.0
2015-Mar-12 12:32S 03°43' E 114°29'0 0.0
2015-Mar-12 11:32S 03°43' E 114°29'0 0.0
2015-Mar-12 10:32S 03°43' E 114°29'0 0.0
2015-Mar-12 09:29S 03°43' E 114°29'0 0.1
2015-Mar-12 08:32S 03°43' E 114°29'0 0.0
2015-Mar-12 07:32S 03°43' E 114°29'0 0.1
2015-Mar-12 06:32S 03°43' E 114°29'0 0.0
2015-Mar-12 05:32S 03°43' E 114°29'0 0.0
2015-Mar-12 04:32S 03°43' E 114°29'0 0.0
2015-Mar-12 03:32S 03°43' E 114°29'0 0.0
2015-Mar-12 02:32S 03°43' E 114°29'0 0.0
2015-Mar-12 00:32S 03°43' E 114°29'0 0.0
2015-Mar-11 23:32S 03°43' E 114°29'0 0.1
2015-Mar-11 22:26S 03°43' E 114°29'0 0.1
2015-Mar-11 21:32S 03°43' E 114°29'0 0.1
2015-Mar-11 20:32S 03°43' E 114°29'0 0.1
2015-Mar-11 19:32S 03°43' E 114°29'0 0.0
2015-Mar-11 18:29S 03°43' E 114°29'0 0.1
2015-Mar-11 17:32S 03°43' E 114°29'0 0.0
2015-Mar-11 16:29S 03°43' E 114°29'0 0.0
2015-Mar-11 15:32S 03°43' E 114°29'0 0.0
2015-Mar-11 14:32S 03°43' E 114°29'0 0.1
2015-Mar-11 13:32S 03°43' E 114°29'0 0.1
2015-Mar-11 12:32S 03°43' E 114°29'0 0.1
2015-Mar-11 11:32S 03°43' E 114°29'0 0.0
2015-Mar-11 10:32S 03°43' E 114°29'0 0.1
2015-Mar-11 09:32S 03°43' E 114°29'0 0.1
2015-Mar-11 08:32S 03°43' E 114°29'0 0.0
2015-Mar-11 07:32S 03°43' E 114°29'0 0.0
2015-Mar-11 06:32S 03°43' E 114°29'0 0.0
2015-Mar-11 05:32S 03°43' E 114°29'0 0.0
2015-Mar-11 04:32S 03°43' E 114°29'0 0.0
2015-Mar-11 03:32S 03°43' E 114°29'0 0.1
2015-Mar-11 02:32S 03°43' E 114°29'0 0.0
2015-Mar-11 01:32S 03°43' E 114°29'0 0.1
2015-Mar-11 00:32S 03°43' E 114°29'0 0.0
2015-Mar-10 23:32S 03°43' E 114°29'0 0.1
2015-Mar-10 22:32S 03°43' E 114°29'0 0.1
2015-Mar-10 21:32S 03°43' E 114°29'0 0.1
2015-Mar-10 20:32S 03°43' E 114°29'0 0.0
2015-Mar-10 19:32S 03°43' E 114°29'0 0.0
2015-Mar-10 18:32S 03°43' E 114°29'0 0.1
2015-Mar-10 17:32S 03°43' E 114°29'0 0.1
2015-Mar-10 16:32S 03°43' E 114°29'0 0.1
2015-Mar-10 15:32S 03°43' E 114°29'0 0.1
2015-Mar-10 14:32S 03°43' E 114°29'0 0.1
2015-Mar-10 13:32S 03°43' E 114°29'0 0.1
2015-Mar-10 12:32S 03°43' E 114°29'0 0.0
2015-Mar-10 11:32S 03°43' E 114°29'0 0.0
2015-Mar-10 10:32S 03°43' E 114°29'0 0.0
2015-Mar-10 09:32S 03°43' E 114°29'0 0.0
2015-Mar-10 08:32S 03°43' E 114°29'0 0.0
2015-Mar-10 07:32S 03°43' E 114°29'0 0.1
2015-Mar-10 06:32S 03°43' E 114°29'0 0.0
2015-Mar-10 05:32S 03°43' E 114°29'0 0.1
2015-Mar-10 04:26S 03°43' E 114°29'0 0.1
2015-Mar-10 03:26S 03°43' E 114°29'0 0.1
2015-Mar-10 02:20S 03°43' E 114°29'0 0.0
2015-Mar-10 01:32S 03°43' E 114°29'0 0.1
2015-Mar-10 00:29S 03°43' E 114°29'0 0.1
2015-Mar-09 23:32S 03°43' E 114°29'0 0.0
2015-Mar-09 22:32S 03°43' E 114°29'0 0.0
2015-Mar-09 21:32S 03°43' E 114°29'0 0.0
2015-Mar-09 20:32S 03°43' E 114°29'0 0.1
2015-Mar-09 19:32S 03°43' E 114°29'0 0.1
2015-Mar-09 18:32S 03°43' E 114°29'0 0.0
2015-Mar-09 17:32S 03°43' E 114°29'0 0.0
2015-Mar-09 16:32S 03°43' E 114°29'0 0.0
2015-Mar-09 15:32S 03°43' E 114°29'0 0.0
2015-Mar-09 14:32S 03°43' E 114°29'0 0.0
2015-Mar-09 13:32S 03°43' E 114°29'0 0.1
2015-Mar-09 12:32S 03°43' E 114°29'0 0.2
2015-Mar-09 11:32S 03°43' E 114°29'0 0.1
2015-Mar-09 10:32S 03°43' E 114°29'0 0.0
2015-Mar-09 09:32S 03°43' E 114°29'0 0.0
2015-Mar-09 08:32S 03°43' E 114°29'0 0.1
2015-Mar-09 07:32S 03°43' E 114°29'0 0.1
2015-Mar-09 06:32S 03°43' E 114°29'0 0.0
2015-Mar-09 05:32S 03°43' E 114°29'0 0.0
2015-Mar-09 04:32S 03°43' E 114°29'0 0.1
2015-Mar-09 03:32S 03°43' E 114°29'0 0.0
2015-Mar-09 02:32S 03°43' E 114°29'0 0.0
2015-Mar-09 01:29S 03°43' E 114°29'0 0.1
2015-Mar-09 00:32S 03°43' E 114°29'0 0.1
2015-Mar-08 23:32S 03°43' E 114°29'0 0.1
2015-Mar-08 22:32S 03°43' E 114°29'0 0.0
2015-Mar-08 21:32S 03°43' E 114°29'0 0.0
2015-Mar-08 20:32S 03°43' E 114°29'0 0.0
2015-Mar-08 19:32S 03°43' E 114°29'0 0.1
2015-Mar-08 18:32S 03°43' E 114°29'0 0.1
2015-Mar-08 17:32S 03°43' E 114°29'0 0.0
2015-Mar-08 16:32S 03°43' E 114°29'0 0.0
2015-Mar-08 15:32S 03°43' E 114°29'0 0.1
2015-Mar-08 14:32S 03°43' E 114°29'0 0.1
2015-Mar-08 13:32S 03°43' E 114°29'0 0.1
2015-Mar-08 12:32S 03°43' E 114°29'0 0.1
2015-Mar-08 11:32S 03°43' E 114°29'0 0.1
2015-Mar-08 10:32S 03°43' E 114°29'0 0.1
2015-Mar-08 09:32S 03°43' E 114°29'0 0.0
2015-Mar-08 08:32S 03°43' E 114°29'0 0.1
2015-Mar-08 07:32S 03°43' E 114°29'0 0.1
2015-Mar-08 06:32S 03°43' E 114°29'0 0.0
2015-Mar-08 05:30S 03°43' E 114°29'0 0.1
2015-Mar-08 04:29S 03°43' E 114°29'0 0.0
2015-Mar-08 03:32S 03°43' E 114°29'0 0.0
2015-Mar-07 23:14S 03°43' E 114°29'0 0.1
2015-Mar-07 22:32S 03°43' E 114°29'0 0.1
2015-Mar-07 21:32S 03°43' E 114°29'0 0.2
2015-Mar-07 20:32S 03°43' E 114°29'0 0.1
2015-Mar-07 19:32S 03°43' E 114°29'0 0.0
2015-Mar-07 18:32S 03°43' E 114°29'  

Dump ship's entire track history